sensor_id;sensor_type;location;lat;lon;timestamp;temperature;humidity
7972;DHT22;4031;49.758;6.120;2023-11-18T00:00:10;4.10;99.90
7972;DHT22;4031;49.758;6.120;2023-11-18T00:02:38;4.10;99.90
7972;DHT22;4031;49.758;6.120;2023-11-18T00:05:04;4.00;99.90
7972;DHT22;4031;49.758;6.120;2023-11-18T00:07:32;4.00;99.90
7972;DHT22;4031;49.758;6.120;2023-11-18T00:09:58;4.00;99.90
7972;DHT22;4031;49.758;6.120;2023-11-18T00:12:24;4.00;99.90
7972;DHT22;4031;49.758;6.120;2023-11-18T00:14:50;4.10;99.90
7972;DHT22;4031;49.758;6.120;2023-11-18T00:17:16;4.10;99.90
7972;DHT22;4031;49.758;6.120;2023-11-18T00:19:41;4.00;99.90
7972;DHT22;4031;49.758;6.120;2023-11-18T00:22:08;4.10;99.90
7972;DHT22;4031;49.758;6.120;2023-11-18T00:24:34;4.10;99.90
7972;DHT22;4031;49.758;6.120;2023-11-18T00:27:01;4.10;99.90
7972;DHT22;4031;49.758;6.120;2023-11-18T00:29:34;4.10;99.90
7972;DHT22;4031;49.758;6.120;2023-11-18T00:32:03;4.00;99.90
7972;DHT22;4031;49.758;6.120;2023-11-18T00:34:29;4.00;99.90
7972;DHT22;4031;49.758;6.120;2023-11-18T00:36:56;4.00;99.90
7972;DHT22;4031;49.758;6.120;2023-11-18T00:39:23;4.00;99.90
7972;DHT22;4031;49.758;6.120;2023-11-18T00:41:49;4.00;99.90
7972;DHT22;4031;49.758;6.120;2023-11-18T00:44:15;4.00;99.90
7972;DHT22;4031;49.758;6.120;2023-11-18T00:46:40;4.00;99.90
7972;DHT22;4031;49.758;6.120;2023-11-18T00:49:06;4.00;99.90
7972;DHT22;4031;49.758;6.120;2023-11-18T00:51:32;4.00;99.90
7972;DHT22;4031;49.758;6.120;2023-11-18T00:53:58;4.00;99.90
7972;DHT22;4031;49.758;6.120;2023-11-18T00:56:26;4.00;99.90
7972;DHT22;4031;49.758;6.120;2023-11-18T00:58:53;4.00;99.90
7972;DHT22;4031;49.758;6.120;2023-11-18T01:01:18;4.00;99.90
7972;DHT22;4031;49.758;6.120;2023-11-18T01:03:45;4.00;99.90
7972;DHT22;4031;49.758;6.120;2023-11-18T01:06:11;4.00;99.90
7972;DHT22;4031;49.758;6.120;2023-11-18T01:08:37;4.00;99.90
7972;DHT22;4031;49.758;6.120;2023-11-18T01:11:04;4.00;99.90
7972;DHT22;4031;49.758;6.120;2023-11-18T01:13:30;4.00;99.90
7972;DHT22;4031;49.758;6.120;2023-11-18T01:15:56;4.00;99.90
7972;DHT22;4031;49.758;6.120;2023-11-18T01:18:23;4.00;99.90
7972;DHT22;4031;49.758;6.120;2023-11-18T01:20:49;4.00;99.90
7972;DHT22;4031;49.758;6.120;2023-11-18T01:23:15;3.90;99.90
7972;DHT22;4031;49.758;6.120;2023-11-18T01:25:40;3.90;99.90
7972;DHT22;4031;49.758;6.120;2023-11-18T01:28:07;3.90;99.90
7972;DHT22;4031;49.758;6.120;2023-11-18T01:30:32;3.80;99.90
7972;DHT22;4031;49.758;6.120;2023-11-18T01:32:59;3.80;99.90
7972;DHT22;4031;49.758;6.120;2023-11-18T01:35:28;3.70;99.90
7972;DHT22;4031;49.758;6.120;2023-11-18T01:37:54;3.70;99.90
7972;DHT22;4031;49.758;6.120;2023-11-18T01:40:20;3.70;99.90
7972;DHT22;4031;49.758;6.120;2023-11-18T01:42:46;3.70;99.90
7972;DHT22;4031;49.758;6.120;2023-11-18T01:45:12;3.70;99.90
7972;DHT22;4031;49.758;6.120;2023-11-18T01:47:40;3.70;99.90
7972;DHT22;4031;49.758;6.120;2023-11-18T01:50:07;3.70;99.90
7972;DHT22;4031;49.758;6.120;2023-11-18T01:52:35;3.70;99.90
7972;DHT22;4031;49.758;6.120;2023-11-18T01:55:02;3.70;99.90
7972;DHT22;4031;49.758;6.120;2023-11-18T01:57:34;3.70;99.90
7972;DHT22;4031;49.758;6.120;2023-11-18T02:00:01;3.70;99.90
7972;DHT22;4031;49.758;6.120;2023-11-18T02:02:32;3.70;99.90
7972;DHT22;4031;49.758;6.120;2023-11-18T02:04:58;3.70;99.90
7972;DHT22;4031;49.758;6.120;2023-11-18T02:07:27;3.70;99.90
7972;DHT22;4031;49.758;6.120;2023-11-18T02:09:55;3.70;99.90
7972;DHT22;4031;49.758;6.120;2023-11-18T02:12:31;3.70;99.90
7972;DHT22;4031;49.758;6.120;2023-11-18T02:15:10;3.70;99.90
7972;DHT22;4031;49.758;6.120;2023-11-18T02:17:38;3.80;99.90
7972;DHT22;4031;49.758;6.120;2023-11-18T02:20:05;3.80;99.90
7972;DHT22;4031;49.758;6.120;2023-11-18T02:22:44;3.80;99.90
7972;DHT22;4031;49.758;6.120;2023-11-18T02:25:15;3.80;99.90
7972;DHT22;4031;49.758;6.120;2023-11-18T02:27:43;3.80;99.90
7972;DHT22;4031;49.758;6.120;2023-11-18T02:30:12;3.80;99.90
7972;DHT22;4031;49.758;6.120;2023-11-18T02:35:36;3.80;99.90
7972;DHT22;4031;49.758;6.120;2023-11-18T02:38:05;3.80;99.90
7972;DHT22;4031;49.758;6.120;2023-11-18T02:40:35;3.80;99.90
7972;DHT22;4031;49.758;6.120;2023-11-18T02:43:03;3.80;99.90
7972;DHT22;4031;49.758;6.120;2023-11-18T02:45:34;3.80;99.90
7972;DHT22;4031;49.758;6.120;2023-11-18T02:48:01;3.80;99.90
7972;DHT22;4031;49.758;6.120;2023-11-18T02:50:27;3.70;99.90
7972;DHT22;4031;49.758;6.120;2023-11-18T02:52:54;3.70;99.90
7972;DHT22;4031;49.758;6.120;2023-11-18T02:55:20;3.70;99.90
7972;DHT22;4031;49.758;6.120;2023-11-18T02:57:50;3.70;99.90
7972;DHT22;4031;49.758;6.120;2023-11-18T03:00:19;3.70;99.90
7972;DHT22;4031;49.758;6.120;2023-11-18T03:02:51;3.70;99.90
7972;DHT22;4031;49.758;6.120;2023-11-18T03:05:20;3.70;99.90
7972;DHT22;4031;49.758;6.120;2023-11-18T03:07:47;3.70;99.90
7972;DHT22;4031;49.758;6.120;2023-11-18T03:10:16;3.70;99.90
7972;DHT22;4031;49.758;6.120;2023-11-18T03:12:49;3.70;99.90
7972;DHT22;4031;49.758;6.120;2023-11-18T03:15:19;3.80;99.90
7972;DHT22;4031;49.758;6.120;2023-11-18T03:17:46;3.80;99.90
7972;DHT22;4031;49.758;6.120;2023-11-18T03:20:17;3.80;99.90
7972;DHT22;4031;49.758;6.120;2023-11-18T03:22:44;3.80;99.90
7972;DHT22;4031;49.758;6.120;2023-11-18T03:25:13;3.80;99.90
7972;DHT22;4031;49.758;6.120;2023-11-18T03:27:39;3.80;99.90
7972;DHT22;4031;49.758;6.120;2023-11-18T03:30:06;3.90;99.90
7972;DHT22;4031;49.758;6.120;2023-11-18T03:32:34;3.90;99.90
7972;DHT22;4031;49.758;6.120;2023-11-18T03:35:03;3.90;99.90
7972;DHT22;4031;49.758;6.120;2023-11-18T03:37:32;3.90;99.90
7972;DHT22;4031;49.758;6.120;2023-11-18T03:39:58;3.90;99.90
7972;DHT22;4031;49.758;6.120;2023-11-18T03:42:23;3.90;99.90
7972;DHT22;4031;49.758;6.120;2023-11-18T03:44:49;3.90;99.90
7972;DHT22;4031;49.758;6.120;2023-11-18T03:47:15;3.90;99.90
7972;DHT22;4031;49.758;6.120;2023-11-18T03:49:41;3.90;99.90
7972;DHT22;4031;49.758;6.120;2023-11-18T03:52:07;3.90;99.90
7972;DHT22;4031;49.758;6.120;2023-11-18T03:54:33;3.90;99.90
7972;DHT22;4031;49.758;6.120;2023-11-18T03:56:59;3.90;99.90
7972;DHT22;4031;49.758;6.120;2023-11-18T03:59:25;4.00;99.90
7972;DHT22;4031;49.758;6.120;2023-11-18T04:01:51;4.00;99.90
7972;DHT22;4031;49.758;6.120;2023-11-18T04:04:17;4.00;99.90
7972;DHT22;4031;49.758;6.120;2023-11-18T04:06:43;4.00;99.90
7972;DHT22;4031;49.758;6.120;2023-11-18T04:09:10;4.00;99.90
7972;DHT22;4031;49.758;6.120;2023-11-18T04:11:36;4.10;99.90
7972;DHT22;4031;49.758;6.120;2023-11-18T04:14:02;4.10;99.90
7972;DHT22;4031;49.758;6.120;2023-11-18T04:16:30;4.10;99.90
7972;DHT22;4031;49.758;6.120;2023-11-18T04:18:56;4.10;99.90
7972;DHT22;4031;49.758;6.120;2023-11-18T04:21:22;4.20;99.90
7972;DHT22;4031;49.758;6.120;2023-11-18T04:23:48;4.20;99.90
7972;DHT22;4031;49.758;6.120;2023-11-18T04:26:14;4.20;99.90
7972;DHT22;4031;49.758;6.120;2023-11-18T04:28:39;4.20;99.90
7972;DHT22;4031;49.758;6.120;2023-11-18T04:31:05;4.20;99.90
7972;DHT22;4031;49.758;6.120;2023-11-18T04:33:31;4.20;99.90
7972;DHT22;4031;49.758;6.120;2023-11-18T04:35:58;4.20;99.90
7972;DHT22;4031;49.758;6.120;2023-11-18T04:38:25;4.20;99.90
7972;DHT22;4031;49.758;6.120;2023-11-18T04:40:52;4.30;99.90
7972;DHT22;4031;49.758;6.120;2023-11-18T04:43:19;4.30;99.90
7972;DHT22;4031;49.758;6.120;2023-11-18T04:45:46;4.30;99.90
7972;DHT22;4031;49.758;6.120;2023-11-18T04:48:12;4.30;99.90
7972;DHT22;4031;49.758;6.120;2023-11-18T04:50:42;4.40;99.90
7972;DHT22;4031;49.758;6.120;2023-11-18T04:53:08;4.40;99.90
7972;DHT22;4031;49.758;6.120;2023-11-18T04:55:35;4.40;99.90
7972;DHT22;4031;49.758;6.120;2023-11-18T04:58:01;4.40;99.90
7972;DHT22;4031;49.758;6.120;2023-11-18T05:00:28;4.40;99.90
7972;DHT22;4031;49.758;6.120;2023-11-18T05:02:54;4.40;99.90
7972;DHT22;4031;49.758;6.120;2023-11-18T05:05:20;4.50;99.90
7972;DHT22;4031;49.758;6.120;2023-11-18T05:07:47;4.50;99.90
7972;DHT22;4031;49.758;6.120;2023-11-18T05:10:13;4.50;99.90
7972;DHT22;4031;49.758;6.120;2023-11-18T05:12:39;4.50;99.90
7972;DHT22;4031;49.758;6.120;2023-11-18T05:15:06;4.50;99.90
7972;DHT22;4031;49.758;6.120;2023-11-18T05:17:42;4.50;99.90
7972;DHT22;4031;49.758;6.120;2023-11-18T05:20:08;4.50;99.90
7972;DHT22;4031;49.758;6.120;2023-11-18T05:22:35;4.50;99.90
7972;DHT22;4031;49.758;6.120;2023-11-18T05:25:02;4.50;99.90
7972;DHT22;4031;49.758;6.120;2023-11-18T05:27:30;4.50;99.90
7972;DHT22;4031;49.758;6.120;2023-11-18T05:29:57;4.60;99.90
7972;DHT22;4031;49.758;6.120;2023-11-18T05:32:27;4.60;99.90
7972;DHT22;4031;49.758;6.120;2023-11-18T05:34:53;4.60;99.90
7972;DHT22;4031;49.758;6.120;2023-11-18T05:37:23;4.60;99.90
7972;DHT22;4031;49.758;6.120;2023-11-18T05:39:50;4.60;99.90
7972;DHT22;4031;49.758;6.120;2023-11-18T05:42:25;4.60;99.90
7972;DHT22;4031;49.758;6.120;2023-11-18T05:44:51;4.60;99.90
7972;DHT22;4031;49.758;6.120;2023-11-18T05:47:24;4.70;99.90
7972;DHT22;4031;49.758;6.120;2023-11-18T05:49:51;4.60;99.90
7972;DHT22;4031;49.758;6.120;2023-11-18T05:52:17;4.70;99.90
7972;DHT22;4031;49.758;6.120;2023-11-18T05:54:44;4.70;99.90
7972;DHT22;4031;49.758;6.120;2023-11-18T05:57:09;4.70;99.90
7972;DHT22;4031;49.758;6.120;2023-11-18T05:59:35;4.70;99.90
7972;DHT22;4031;49.758;6.120;2023-11-18T06:02:01;4.70;99.90
7972;DHT22;4031;49.758;6.120;2023-11-18T06:04:28;4.70;99.90
7972;DHT22;4031;49.758;6.120;2023-11-18T06:06:56;4.70;99.90
7972;DHT22;4031;49.758;6.120;2023-11-18T06:09:22;4.70;99.90
7972;DHT22;4031;49.758;6.120;2023-11-18T06:11:51;4.80;99.90
7972;DHT22;4031;49.758;6.120;2023-11-18T06:14:19;4.80;99.90
7972;DHT22;4031;49.758;6.120;2023-11-18T06:16:45;4.80;99.90
7972;DHT22;4031;49.758;6.120;2023-11-18T06:19:13;4.80;99.90
7972;DHT22;4031;49.758;6.120;2023-11-18T06:21:40;4.80;99.90
7972;DHT22;4031;49.758;6.120;2023-11-18T06:24:06;4.80;99.90
7972;DHT22;4031;49.758;6.120;2023-11-18T06:26:32;4.80;99.90
7972;DHT22;4031;49.758;6.120;2023-11-18T06:29:01;4.80;99.90
7972;DHT22;4031;49.758;6.120;2023-11-18T06:31:27;4.80;99.90
7972;DHT22;4031;49.758;6.120;2023-11-18T06:33:54;4.80;99.90
7972;DHT22;4031;49.758;6.120;2023-11-18T06:36:20;4.80;99.90
7972;DHT22;4031;49.758;6.120;2023-11-18T06:38:50;4.80;99.90
7972;DHT22;4031;49.758;6.120;2023-11-18T06:41:18;4.80;99.90
7972;DHT22;4031;49.758;6.120;2023-11-18T06:43:48;4.80;99.90
7972;DHT22;4031;49.758;6.120;2023-11-18T06:46:20;4.80;99.90
7972;DHT22;4031;49.758;6.120;2023-11-18T06:48:50;4.80;99.90
7972;DHT22;4031;49.758;6.120;2023-11-18T06:51:26;4.80;99.90
7972;DHT22;4031;49.758;6.120;2023-11-18T06:53:56;4.80;99.90
7972;DHT22;4031;49.758;6.120;2023-11-18T06:56:26;4.90;99.90
7972;DHT22;4031;49.758;6.120;2023-11-18T06:58:53;4.80;99.90
7972;DHT22;4031;49.758;6.120;2023-11-18T07:01:19;4.80;99.90
7972;DHT22;4031;49.758;6.120;2023-11-18T07:03:45;4.90;99.90
7972;DHT22;4031;49.758;6.120;2023-11-18T07:06:16;4.90;99.90
7972;DHT22;4031;49.758;6.120;2023-11-18T07:08:47;4.90;99.90
7972;DHT22;4031;49.758;6.120;2023-11-18T07:11:18;4.90;99.90
7972;DHT22;4031;49.758;6.120;2023-11-18T07:13:44;4.90;99.90
7972;DHT22;4031;49.758;6.120;2023-11-18T07:16:10;4.90;99.90
7972;DHT22;4031;49.758;6.120;2023-11-18T07:18:37;4.90;99.90
7972;DHT22;4031;49.758;6.120;2023-11-18T07:21:06;4.90;99.90
7972;DHT22;4031;49.758;6.120;2023-11-18T07:23:32;4.90;99.90
7972;DHT22;4031;49.758;6.120;2023-11-18T07:25:59;5.00;99.90
7972;DHT22;4031;49.758;6.120;2023-11-18T07:28:25;5.00;99.90
7972;DHT22;4031;49.758;6.120;2023-11-18T07:30:51;5.10;99.90
7972;DHT22;4031;49.758;6.120;2023-11-18T07:33:19;5.10;99.90
7972;DHT22;4031;49.758;6.120;2023-11-18T07:35:47;5.10;99.90
7972;DHT22;4031;49.758;6.120;2023-11-18T07:38:16;5.10;99.90
7972;DHT22;4031;49.758;6.120;2023-11-18T07:40:45;5.10;99.90
7972;DHT22;4031;49.758;6.120;2023-11-18T07:43:12;5.20;99.90
7972;DHT22;4031;49.758;6.120;2023-11-18T07:45:39;5.20;99.90
7972;DHT22;4031;49.758;6.120;2023-11-18T07:48:06;5.20;99.90
7972;DHT22;4031;49.758;6.120;2023-11-18T07:50:36;5.30;99.90
7972;DHT22;4031;49.758;6.120;2023-11-18T07:53:03;5.30;99.90
7972;DHT22;4031;49.758;6.120;2023-11-18T07:55:29;5.30;99.90
7972;DHT22;4031;49.758;6.120;2023-11-18T07:57:55;5.30;99.90
7972;DHT22;4031;49.758;6.120;2023-11-18T08:00:21;5.30;99.90
7972;DHT22;4031;49.758;6.120;2023-11-18T08:02:49;5.40;99.90
7972;DHT22;4031;49.758;6.120;2023-11-18T08:05:14;5.40;99.90
7972;DHT22;4031;49.758;6.120;2023-11-18T08:07:43;5.40;99.90
7972;DHT22;4031;49.758;6.120;2023-11-18T08:10:10;5.50;99.90
7972;DHT22;4031;49.758;6.120;2023-11-18T08:12:38;5.50;99.90
7972;DHT22;4031;49.758;6.120;2023-11-18T08:15:06;5.50;99.90
7972;DHT22;4031;49.758;6.120;2023-11-18T08:17:32;5.50;99.90
7972;DHT22;4031;49.758;6.120;2023-11-18T08:20:01;5.60;99.90
7972;DHT22;4031;49.758;6.120;2023-11-18T08:22:32;5.60;99.90
7972;DHT22;4031;49.758;6.120;2023-11-18T08:24:58;5.60;99.90
7972;DHT22;4031;49.758;6.120;2023-11-18T08:27:24;5.70;99.90
7972;DHT22;4031;49.758;6.120;2023-11-18T08:29:50;5.70;99.90
7972;DHT22;4031;49.758;6.120;2023-11-18T08:32:16;5.70;99.90
7972;DHT22;4031;49.758;6.120;2023-11-18T08:34:42;5.70;99.90
7972;DHT22;4031;49.758;6.120;2023-11-18T08:37:08;5.80;99.90
7972;DHT22;4031;49.758;6.120;2023-11-18T08:39:34;5.80;99.90
7972;DHT22;4031;49.758;6.120;2023-11-18T08:42:00;5.80;99.90
7972;DHT22;4031;49.758;6.120;2023-11-18T08:44:27;5.80;99.90
7972;DHT22;4031;49.758;6.120;2023-11-18T08:46:53;5.80;99.90
7972;DHT22;4031;49.758;6.120;2023-11-18T08:49:20;5.80;99.90
7972;DHT22;4031;49.758;6.120;2023-11-18T08:51:48;5.80;99.90
7972;DHT22;4031;49.758;6.120;2023-11-18T08:54:16;5.90;99.90
7972;DHT22;4031;49.758;6.120;2023-11-18T08:56:53;5.80;99.90
7972;DHT22;4031;49.758;6.120;2023-11-18T08:59:23;5.80;99.90
7972;DHT22;4031;49.758;6.120;2023-11-18T09:01:52;5.80;99.90
7972;DHT22;4031;49.758;6.120;2023-11-18T09:04:22;5.80;99.90
7972;DHT22;4031;49.758;6.120;2023-11-18T09:06:49;5.80;99.90
7972;DHT22;4031;49.758;6.120;2023-11-18T09:09:22;5.80;99.90
7972;DHT22;4031;49.758;6.120;2023-11-18T09:11:54;5.80;99.90
7972;DHT22;4031;49.758;6.120;2023-11-18T09:14:26;5.80;99.90
7972;DHT22;4031;49.758;6.120;2023-11-18T09:16:52;5.90;99.90
7972;DHT22;4031;49.758;6.120;2023-11-18T09:19:21;5.90;99.90
7972;DHT22;4031;49.758;6.120;2023-11-18T09:21:47;5.80;99.90
7972;DHT22;4031;49.758;6.120;2023-11-18T09:24:14;5.90;99.90
7972;DHT22;4031;49.758;6.120;2023-11-18T09:26:45;5.90;99.90
7972;DHT22;4031;49.758;6.120;2023-11-18T09:29:18;5.80;99.90
7972;DHT22;4031;49.758;6.120;2023-11-18T09:31:47;5.90;99.90
7972;DHT22;4031;49.758;6.120;2023-11-18T09:34:18;5.80;99.90
7972;DHT22;4031;49.758;6.120;2023-11-18T09:36:53;5.80;99.90
7972;DHT22;4031;49.758;6.120;2023-11-18T09:39:19;5.80;99.90
7972;DHT22;4031;49.758;6.120;2023-11-18T09:41:58;5.80;99.90
7972;DHT22;4031;49.758;6.120;2023-11-18T09:44:28;5.80;99.90
7972;DHT22;4031;49.758;6.120;2023-11-18T09:46:57;5.90;99.90
7972;DHT22;4031;49.758;6.120;2023-11-18T09:49:32;5.90;99.90
7972;DHT22;4031;49.758;6.120;2023-11-18T09:52:06;6.00;99.90
7972;DHT22;4031;49.758;6.120;2023-11-18T09:57:33;6.00;99.90
7972;DHT22;4031;49.758;6.120;2023-11-18T10:00:06;6.00;99.90
7972;DHT22;4031;49.758;6.120;2023-11-18T10:02:51;6.00;99.90
7972;DHT22;4031;49.758;6.120;2023-11-18T10:05:19;6.10;99.90
7972;DHT22;4031;49.758;6.120;2023-11-18T10:07:52;6.00;99.90
7972;DHT22;4031;49.758;6.120;2023-11-18T10:10:18;6.00;99.90
7972;DHT22;4031;49.758;6.120;2023-11-18T10:12:50;6.00;99.90
7972;DHT22;4031;49.758;6.120;2023-11-18T10:15:23;6.10;99.90
7972;DHT22;4031;49.758;6.120;2023-11-18T10:17:53;6.20;99.90
7972;DHT22;4031;49.758;6.120;2023-11-18T10:20:46;6.30;99.90
7972;DHT22;4031;49.758;6.120;2023-11-18T10:23:15;6.30;99.90
7972;DHT22;4031;49.758;6.120;2023-11-18T10:30:53;6.50;99.90
7972;DHT22;4031;49.758;6.120;2023-11-18T10:33:24;6.60;99.90
7972;DHT22;4031;49.758;6.120;2023-11-18T10:35:56;6.60;99.90
7972;DHT22;4031;49.758;6.120;2023-11-18T10:38:22;6.70;99.90
7972;DHT22;4031;49.758;6.120;2023-11-18T10:40:55;6.70;99.90
7972;DHT22;4031;49.758;6.120;2023-11-18T10:43:22;6.80;99.90
7972;DHT22;4031;49.758;6.120;2023-11-18T10:46:11;6.80;99.90
7972;DHT22;4031;49.758;6.120;2023-11-18T10:48:48;6.80;99.90
7972;DHT22;4031;49.758;6.120;2023-11-18T10:51:15;6.80;99.90
7972;DHT22;4031;49.758;6.120;2023-11-18T10:53:47;6.90;99.90
7972;DHT22;4031;49.758;6.120;2023-11-18T10:56:24;6.80;99.90
7972;DHT22;4031;49.758;6.120;2023-11-18T10:58:56;6.80;99.90
7972;DHT22;4031;49.758;6.120;2023-11-18T11:01:35;6.80;99.90
7972;DHT22;4031;49.758;6.120;2023-11-18T11:04:08;6.80;99.90
7972;DHT22;4031;49.758;6.120;2023-11-18T11:06:39;6.80;99.90
7972;DHT22;4031;49.758;6.120;2023-11-18T11:09:07;6.70;99.90
7972;DHT22;4031;49.758;6.120;2023-11-18T11:11:59;6.70;99.90
7972;DHT22;4031;49.758;6.120;2023-11-18T11:14:33;6.70;99.90
7972;DHT22;4031;49.758;6.120;2023-11-18T11:17:06;6.70;99.90
7972;DHT22;4031;49.758;6.120;2023-11-18T11:19:53;6.70;99.90
7972;DHT22;4031;49.758;6.120;2023-11-18T11:22:36;6.60;99.90
7972;DHT22;4031;49.758;6.120;2023-11-18T11:25:15;6.60;99.90
7972;DHT22;4031;49.758;6.120;2023-11-18T11:28:03;6.60;99.90
7972;DHT22;4031;49.758;6.120;2023-11-18T11:33:57;6.60;99.90
7972;DHT22;4031;49.758;6.120;2023-11-18T11:36:37;6.60;99.90
7972;DHT22;4031;49.758;6.120;2023-11-18T11:39:07;6.60;99.90
7972;DHT22;4031;49.758;6.120;2023-11-18T11:41:44;6.70;99.90
7972;DHT22;4031;49.758;6.120;2023-11-18T11:44:13;6.70;99.90
7972;DHT22;4031;49.758;6.120;2023-11-18T11:46:40;6.70;99.90
7972;DHT22;4031;49.758;6.120;2023-11-18T11:49:09;6.70;99.90
7972;DHT22;4031;49.758;6.120;2023-11-18T11:55:01;6.80;99.90
7972;DHT22;4031;49.758;6.120;2023-11-18T11:57:38;6.80;99.90
7972;DHT22;4031;49.758;6.120;2023-11-18T12:00:09;6.80;99.90
7972;DHT22;4031;49.758;6.120;2023-11-18T12:02:48;6.90;99.90
7972;DHT22;4031;49.758;6.120;2023-11-18T12:05:18;6.90;99.90
7972;DHT22;4031;49.758;6.120;2023-11-18T12:07:52;6.90;99.90
7972;DHT22;4031;49.758;6.120;2023-11-18T12:10:26;7.00;99.90
7972;DHT22;4031;49.758;6.120;2023-11-18T12:13:10;7.00;99.90
7972;DHT22;4031;49.758;6.120;2023-11-18T12:15:55;7.00;99.90
7972;DHT22;4031;49.758;6.120;2023-11-18T12:18:24;6.90;99.90
7972;DHT22;4031;49.758;6.120;2023-11-18T12:20:50;6.90;99.90
7972;DHT22;4031;49.758;6.120;2023-11-18T12:23:23;6.90;99.90
7972;DHT22;4031;49.758;6.120;2023-11-18T12:25:50;6.80;99.90
7972;DHT22;4031;49.758;6.120;2023-11-18T12:28:27;6.80;99.90
7972;DHT22;4031;49.758;6.120;2023-11-18T12:30:56;6.80;99.90
7972;DHT22;4031;49.758;6.120;2023-11-18T12:41:42;7.00;99.90
7972;DHT22;4031;49.758;6.120;2023-11-18T12:47:01;7.00;99.90
7972;DHT22;4031;49.758;6.120;2023-11-18T12:49:41;7.10;99.90
7972;DHT22;4031;49.758;6.120;2023-11-18T12:52:13;7.10;99.90
7972;DHT22;4031;49.758;6.120;2023-11-18T12:54:40;7.10;99.90
7972;DHT22;4031;49.758;6.120;2023-11-18T12:57:09;7.20;99.90
7972;DHT22;4031;49.758;6.120;2023-11-18T12:59:36;7.20;99.90
7972;DHT22;4031;49.758;6.120;2023-11-18T13:02:07;7.10;99.90
7972;DHT22;4031;49.758;6.120;2023-11-18T13:04:39;7.10;99.90
7972;DHT22;4031;49.758;6.120;2023-11-18T13:07:06;7.10;99.90
7972;DHT22;4031;49.758;6.120;2023-11-18T13:09:34;7.10;99.90
7972;DHT22;4031;49.758;6.120;2023-11-18T13:12:02;7.10;99.90
7972;DHT22;4031;49.758;6.120;2023-11-18T13:14:35;7.10;99.90
7972;DHT22;4031;49.758;6.120;2023-11-18T13:17:05;7.10;99.90
7972;DHT22;4031;49.758;6.120;2023-11-18T13:19:35;7.20;99.90
7972;DHT22;4031;49.758;6.120;2023-11-18T13:22:08;7.10;99.90
7972;DHT22;4031;49.758;6.120;2023-11-18T13:24:36;7.10;99.90
7972;DHT22;4031;49.758;6.120;2023-11-18T13:27:03;7.10;99.90
7972;DHT22;4031;49.758;6.120;2023-11-18T13:29:32;7.10;99.90
7972;DHT22;4031;49.758;6.120;2023-11-18T13:31:58;7.10;99.90
7972;DHT22;4031;49.758;6.120;2023-11-18T13:34:25;7.10;99.90
7972;DHT22;4031;49.758;6.120;2023-11-18T13:36:52;7.10;99.90
7972;DHT22;4031;49.758;6.120;2023-11-18T13:39:19;7.10;99.90
7972;DHT22;4031;49.758;6.120;2023-11-18T13:41:48;7.10;99.90
7972;DHT22;4031;49.758;6.120;2023-11-18T13:44:35;7.20;99.90
7972;DHT22;4031;49.758;6.120;2023-11-18T13:47:04;7.20;99.90
7972;DHT22;4031;49.758;6.120;2023-11-18T13:49:34;7.20;99.90
7972;DHT22;4031;49.758;6.120;2023-11-18T13:52:00;7.10;99.90
7972;DHT22;4031;49.758;6.120;2023-11-18T13:54:30;7.10;99.90
7972;DHT22;4031;49.758;6.120;2023-11-18T13:56:58;7.10;99.90
7972;DHT22;4031;49.758;6.120;2023-11-18T13:59:25;7.10;99.90
7972;DHT22;4031;49.758;6.120;2023-11-18T14:01:55;7.10;99.90
7972;DHT22;4031;49.758;6.120;2023-11-18T14:04:33;7.10;99.90
7972;DHT22;4031;49.758;6.120;2023-11-18T14:07:03;7.00;99.90
7972;DHT22;4031;49.758;6.120;2023-11-18T14:09:35;7.10;99.90
7972;DHT22;4031;49.758;6.120;2023-11-18T14:12:02;7.10;99.90
7972;DHT22;4031;49.758;6.120;2023-11-18T14:14:28;7.10;99.90
7972;DHT22;4031;49.758;6.120;2023-11-18T14:16:55;7.10;99.90
7972;DHT22;4031;49.758;6.120;2023-11-18T14:19:27;7.10;99.90
7972;DHT22;4031;49.758;6.120;2023-11-18T14:21:54;7.00;99.90
7972;DHT22;4031;49.758;6.120;2023-11-18T14:24:21;7.10;99.90
7972;DHT22;4031;49.758;6.120;2023-11-18T14:26:57;7.10;99.90
7972;DHT22;4031;49.758;6.120;2023-11-18T14:29:23;7.10;99.90
7972;DHT22;4031;49.758;6.120;2023-11-18T14:31:49;7.10;99.90
7972;DHT22;4031;49.758;6.120;2023-11-18T14:34:15;7.10;99.90
7972;DHT22;4031;49.758;6.120;2023-11-18T14:36:41;7.10;99.90
7972;DHT22;4031;49.758;6.120;2023-11-18T14:39:09;7.10;99.90
7972;DHT22;4031;49.758;6.120;2023-11-18T14:41:43;7.10;99.90
7972;DHT22;4031;49.758;6.120;2023-11-18T14:44:11;7.10;99.90
7972;DHT22;4031;49.758;6.120;2023-11-18T14:46:37;7.10;99.90
7972;DHT22;4031;49.758;6.120;2023-11-18T14:49:06;7.10;99.90
7972;DHT22;4031;49.758;6.120;2023-11-18T14:51:32;7.00;99.90
7972;DHT22;4031;49.758;6.120;2023-11-18T14:53:57;7.10;99.90
7972;DHT22;4031;49.758;6.120;2023-11-18T14:56:23;7.00;99.90
7972;DHT22;4031;49.758;6.120;2023-11-18T14:58:49;7.10;99.90
7972;DHT22;4031;49.758;6.120;2023-11-18T15:01:16;7.00;99.90
7972;DHT22;4031;49.758;6.120;2023-11-18T15:03:46;7.10;99.90
7972;DHT22;4031;49.758;6.120;2023-11-18T15:06:12;7.10;99.90
7972;DHT22;4031;49.758;6.120;2023-11-18T15:08:38;7.10;99.90
7972;DHT22;4031;49.758;6.120;2023-11-18T15:11:06;7.20;99.90
7972;DHT22;4031;49.758;6.120;2023-11-18T15:13:32;7.20;99.90
7972;DHT22;4031;49.758;6.120;2023-11-18T15:15:58;7.10;99.90
7972;DHT22;4031;49.758;6.120;2023-11-18T15:18:27;7.10;99.90
7972;DHT22;4031;49.758;6.120;2023-11-18T15:20:53;7.20;99.90
7972;DHT22;4031;49.758;6.120;2023-11-18T15:23:22;7.10;99.90
7972;DHT22;4031;49.758;6.120;2023-11-18T15:25:48;7.10;99.90
7972;DHT22;4031;49.758;6.120;2023-11-18T15:28:18;7.10;99.90
7972;DHT22;4031;49.758;6.120;2023-11-18T15:30:44;7.10;99.90
7972;DHT22;4031;49.758;6.120;2023-11-18T15:33:10;7.20;99.90
7972;DHT22;4031;49.758;6.120;2023-11-18T15:35:38;7.20;99.90
7972;DHT22;4031;49.758;6.120;2023-11-18T15:38:06;7.20;99.90
7972;DHT22;4031;49.758;6.120;2023-11-18T15:40:34;7.20;99.90
7972;DHT22;4031;49.758;6.120;2023-11-18T15:43:03;7.20;99.90
7972;DHT22;4031;49.758;6.120;2023-11-18T15:45:31;7.20;99.90
7972;DHT22;4031;49.758;6.120;2023-11-18T15:47:58;7.20;99.90
7972;DHT22;4031;49.758;6.120;2023-11-18T15:50:31;7.20;99.90
7972;DHT22;4031;49.758;6.120;2023-11-18T15:52:57;7.20;99.90
7972;DHT22;4031;49.758;6.120;2023-11-18T15:55:24;7.20;99.90
7972;DHT22;4031;49.758;6.120;2023-11-18T15:57:52;7.20;99.90
7972;DHT22;4031;49.758;6.120;2023-11-18T16:00:27;7.20;99.90
7972;DHT22;4031;49.758;6.120;2023-11-18T16:02:57;7.20;99.90
7972;DHT22;4031;49.758;6.120;2023-11-18T16:05:25;7.20;99.90
7972;DHT22;4031;49.758;6.120;2023-11-18T16:07:53;7.20;99.90
7972;DHT22;4031;49.758;6.120;2023-11-18T16:10:21;7.20;99.90
7972;DHT22;4031;49.758;6.120;2023-11-18T16:15:17;7.20;99.90
7972;DHT22;4031;49.758;6.120;2023-11-18T16:17:51;7.20;99.90
7972;DHT22;4031;49.758;6.120;2023-11-18T16:20:20;7.20;99.90
7972;DHT22;4031;49.758;6.120;2023-11-18T16:22:49;7.20;99.90
7972;DHT22;4031;49.758;6.120;2023-11-18T16:25:16;7.20;99.90
7972;DHT22;4031;49.758;6.120;2023-11-18T16:27:51;7.20;99.90
7972;DHT22;4031;49.758;6.120;2023-11-18T16:30:19;7.20;99.90
7972;DHT22;4031;49.758;6.120;2023-11-18T16:32:52;7.20;99.90
7972;DHT22;4031;49.758;6.120;2023-11-18T16:35:19;7.20;99.90
7972;DHT22;4031;49.758;6.120;2023-11-18T16:37:46;7.30;99.90
7972;DHT22;4031;49.758;6.120;2023-11-18T16:40:13;7.30;99.90
7972;DHT22;4031;49.758;6.120;2023-11-18T16:42:43;7.30;99.90
7972;DHT22;4031;49.758;6.120;2023-11-18T16:45:10;7.30;99.90
7972;DHT22;4031;49.758;6.120;2023-11-18T16:47:37;7.30;99.90
7972;DHT22;4031;49.758;6.120;2023-11-18T16:50:08;7.30;99.90
7972;DHT22;4031;49.758;6.120;2023-11-18T16:52:36;7.30;99.90
7972;DHT22;4031;49.758;6.120;2023-11-18T16:55:02;7.30;99.90
7972;DHT22;4031;49.758;6.120;2023-11-18T16:57:28;7.30;99.90